Time;durP1;ratioP1;P1;durP2;ratioP2;P2;SDS_P1;SDS_P2;PMS_P1;PMS_P2;Temp;Humidity;BMP_temperature;BMP_pressure;BME280_temperature;BME280_humidity;BME280_pressure;Samples;Min_cycle;Max_cycle;Signal;HPM_P1;HPM_P2
2022/12/22 03:26:45;;;;;;;12.50;5.22;;;;;;;8.64;100.00;99772.41;5080372;28;20048;-61
2022/12/22 03:29:12;;;;;;;9.55;4.35;;;;;;;8.64;100.00;99769.78;5111491;28;20093;-62
2022/12/22 03:31:38;;;;;;;9.65;4.40;;;;;;;8.68;100.00;99764.13;5095709;28;20048;-62
2022/12/22 03:34:05;;;;;;;9.00;4.70;;;;;;;8.65;100.00;99760.00;5094320;28;20051;-61
2022/12/22 03:36:32;;;;;;;8.93;4.50;;;;;;;8.59;100.00;99753.56;5095143;28;20044;-61
2022/12/22 03:39:00;;;;;;;9.70;4.30;;;;;;;8.70;100.00;99756.88;5095611;28;20052;-62
2022/12/22 03:47:00;;;;;;;8.25;4.28;;;;;;;8.74;100.00;99750.25;5095308;28;20513;-61
2022/12/22 03:49:26;;;;;;;11.15;4.30;;;;;;;8.72;100.00;99747.78;5094592;28;20048;-62
2022/12/22 03:51:53;;;;;;;10.00;4.15;;;;;;;8.68;100.00;99738.53;5094248;28;20149;-61
2022/12/22 03:54:24;;;;;;;12.35;5.22;;;;;;;8.68;100.00;99742.97;5094751;28;20109;-62
2022/12/22 03:56:52;;;;;;;8.55;4.40;;;;;;;8.68;100.00;99735.91;5095141;28;20460;-61
2022/12/22 03:59:19;;;;;;;10.65;4.20;;;;;;;8.77;100.00;99737.53;5094763;28;20085;-62
2022/12/22 04:01:48;;;;;;;10.43;4.43;;;;;;;8.78;100.00;99739.16;5077121;28;20086;-61
2022/12/22 04:04:18;;;;;;;9.32;4.30;;;;;;;8.79;100.00;99727.63;5095182;28;20051;-62
2022/12/22 04:06:45;;;;;;;10.30;5.00;;;;;;;8.74;100.00;99729.94;5093890;28;20051;-62
2022/12/22 04:09:12;;;;;;;8.93;4.40;;;;;;;8.63;100.00;99725.81;5094755;28;20047;-62
2022/12/22 04:13:07;;;;;;;8.68;4.45;;;;;;;8.61;100.00;99719.03;5093735;28;20150;-62
2022/12/22 04:14:26;;;;;;;10.75;4.40;;;;;;;8.71;100.00;99713.56;5095406;28;20441;-62
2022/12/22 04:16:57;;;;;;;9.95;4.60;;;;;;;8.70;100.00;99714.59;5094708;28;20048;-61
2022/12/22 04:19:24;;;;;;;14.52;4.60;;;;;;;8.70;100.00;99712.75;5093490;28;20032;-61
2022/12/22 04:21:51;;;;;;;9.27;4.60;;;;;;;8.76;100.00;99701.50;5094745;28;20075;-61
2022/12/22 04:24:18;;;;;;;10.80;4.70;;;;;;;8.77;100.00;99705.00;5094813;28;20405;-62
2022/12/22 04:26:45;;;;;;;10.95;4.50;;;;;;;8.75;100.00;99699.88;5094663;28;20409;-61
2022/12/22 04:29:12;;;;;;;9.52;4.32;;;;;;;8.83;100.00;99699.84;5094110;28;20119;-62
2022/12/22 04:31:38;;;;;;;9.82;4.50;;;;;;;8.80;100.00;99697.53;5094538;28;20044;-62
2022/12/22 04:34:05;;;;;;;9.30;4.60;;;;;;;8.87;100.00;99694.22;5094210;28;20432;-62
2022/12/22 04:36:31;;;;;;;10.60;4.50;;;;;;;8.81;100.00;99693.88;5094460;28;20044;-62
2022/12/22 04:38:58;;;;;;;9.70;4.05;;;;;;;8.82;100.00;99700.84;5094493;28;20043;-62
2022/12/22 04:41:26;;;;;;;11.57;4.43;;;;;;;8.87;100.00;99696.88;5093998;28;20044;-62
2022/12/22 04:43:53;;;;;;;11.50;4.63;;;;;;;8.83;100.00;99697.19;5094376;28;20040;-62
2022/12/22 04:46:19;;;;;;;9.38;4.55;;;;;;;8.76;100.00;99693.56;5092989;28;20044;-62
2022/12/22 04:48:46;;;;;;;9.23;4.82;;;;;;;8.79;100.00;99685.31;5093007;28;20412;-62
2022/12/22 04:51:13;;;;;;;10.15;4.47;;;;;;;8.84;100.00;99682.13;5093689;28;20430;-62
2022/12/22 04:53:39;;;;;;;10.13;4.57;;;;;;;8.81;100.00;99679.84;5094149;28;20047;-62
2022/12/22 04:56:07;;;;;;;8.73;4.50;;;;;;;8.85;100.00;99675.88;5093670;28;20811;-62
2022/12/22 04:58:34;;;;;;;9.48;4.50;;;;;;;8.93;100.00;99682.94;5073865;28;20055;-62
2022/12/22 05:01:09;;;;;;;8.82;4.18;;;;;;;8.90;100.00;99670.91;5072362;28;20050;-62
2022/12/22 05:03:36;;;;;;;10.68;4.70;;;;;;;8.95;100.00;99681.81;5076227;28;20094;-62
2022/12/22 05:06:02;;;;;;;10.77;4.65;;;;;;;8.96;100.00;99677.34;5093657;28;20185;-62
2022/12/22 05:08:29;;;;;;;8.75;4.78;;;;;;;8.83;100.00;99681.31;5093403;28;20044;-61
2022/12/22 05:10:56;;;;;;;10.00;4.85;;;;;;;8.92;100.00;99682.13;5092834;28;20048;-62
2022/12/22 05:13:23;;;;;;;11.05;4.80;;;;;;;8.91;100.00;99679.66;5093562;28;20044;-61
2022/12/22 05:15:49;;;;;;;9.82;4.68;;;;;;;8.94;100.00;99680.16;5092505;28;20482;-61
2022/12/22 05:18:16;;;;;;;10.07;4.95;;;;;;;8.94;100.00;99674.03;5092177;28;20378;-62
2022/12/22 05:20:42;;;;;;;11.73;4.78;;;;;;;9.01;100.00;99675.81;5092375;28;20090;-62
2022/12/22 05:23:09;;;;;;;11.43;4.53;;;;;;;9.05;100.00;99673.66;5093064;28;20404;-62
2022/12/22 05:25:36;;;;;;;9.98;4.57;;;;;;;9.06;100.00;99672.69;5092304;28;20054;-62
2022/12/22 05:28:03;;;;;;;11.40;4.90;;;;;;;9.08;100.00;99664.56;5093741;28;20072;-63
2022/12/22 05:30:30;;;;;;;10.75;4.65;;;;;;;9.08;100.00;99661.91;5092134;28;20089;-62
2022/12/22 05:32:57;;;;;;;11.35;5.05;;;;;;;9.01;100.00;99665.25;5092489;28;20097;-62
2022/12/22 05:35:23;;;;;;;11.80;5.00;;;;;;;8.93;100.00;99667.94;5093395;28;20375;-62
2022/12/22 05:37:50;;;;;;;11.20;5.20;;;;;;;9.04;100.00;99672.03;5092846;28;20048;-61
2022/12/22 05:40:17;;;;;;;11.32;5.20;;;;;;;9.03;100.00;99673.00;5092493;28;20047;-61
2022/12/22 05:42:43;;;;;;;9.60;4.97;;;;;;;9.01;100.00;99673.19;5091939;28;20042;-62
2022/12/22 05:45:14;;;;;;;10.40;5.35;;;;;;;9.05;100.00;99670.22;5092032;28;20047;-62
2022/12/22 05:47:42;;;;;;;16.83;5.60;;;;;;;9.06;100.00;99680.63;5091707;28;20148;-62
2022/12/22 05:50:10;;;;;;;11.55;5.93;;;;;;;9.05;100.00;99676.31;5092342;28;20104;-62
2022/12/22 05:52:38;;;;;;;12.02;5.43;;;;;;;9.08;100.00;99681.28;5093383;28;20101;-62
2022/12/22 05:55:05;;;;;;;13.23;6.20;;;;;;;9.08;100.00;99678.63;5093332;28;20047;-62
2022/12/22 05:57:32;;;;;;;14.45;6.13;;;;;;;9.09;100.00;99674.16;5093373;28;20055;-61
2022/12/22 05:59:59;;;;;;;13.63;6.53;;;;;;;9.13;100.00;99667.50;5093133;28;20051;-62
2022/12/22 06:02:26;;;;;;;17.98;7.18;;;;;;;9.16;100.00;99675.13;5093117;28;20528;-61
2022/12/22 06:04:52;;;;;;;16.48;7.00;;;;;;;9.15;100.00;99676.09;5092747;28;20051;-61
2022/12/22 06:07:19;;;;;;;15.23;7.97;;;;;;;9.16;100.00;99677.78;5091324;28;20044;-61
2022/12/22 06:09:46;;;;;;;16.13;7.70;;;;;;;9.10;100.00;99679.28;5093148;28;20116;-62
2022/12/22 06:12:13;;;;;;;13.48;7.10;;;;;;;9.10;100.00;99684.56;5093134;28;20044;-62
2022/12/22 06:14:39;;;;;;;15.55;7.28;;;;;;;9.10;100.00;99679.28;5093307;28;20044;-62
2022/12/22 06:17:06;;;;;;;15.95;7.20;;;;;;;9.12;100.00;99684.41;5092646;28;20064;-62
2022/12/22 06:19:33;;;;;;;16.33;7.47;;;;;;;9.10;100.00;99689.03;5093247;28;20048;-62
2022/12/22 06:22:00;;;;;;;17.40;8.05;;;;;;;9.10;100.00;99689.03;5092504;28;20505;-62
2022/12/22 06:24:27;;;;;;;16.45;7.85;;;;;;;9.11;100.00;99688.84;5091818;28;20485;-62
2022/12/22 06:26:56;;;;;;;17.73;8.13;;;;;;;9.14;100.00;99693.00;5092890;28;20059;-62
2022/12/22 06:29:22;;;;;;;16.10;7.68;;;;;;;9.15;100.00;99692.81;5091244;28;20117;-61
2022/12/22 06:31:49;;;;;;;16.73;8.73;;;;;;;9.16;100.00;99691.81;5091924;28;20044;-62
2022/12/22 06:34:16;;;;;;;15.80;8.65;;;;;;;9.18;100.00;99691.66;5093040;28;20051;-62
2022/12/22 06:36:44;;;;;;;19.23;8.30;;;;;;;9.18;100.00;99696.94;5095893;28;20044;-61
2022/12/22 06:39:13;;;;;;;19.48;9.90;;;;;;;9.19;100.00;99696.78;5096258;28;20490;-61
2022/12/22 06:44:27;;;;;;;15.88;8.57;;;;;;;9.13;100.00;99704.56;5096197;28;20044;-61
2022/12/22 06:46:53;;;;;;;16.20;8.07;;;;;;;9.15;100.00;99705.22;5077820;28;20043;-61
2022/12/22 06:49:21;;;;;;;16.13;7.82;;;;;;;9.17;100.00;99711.19;5077813;28;20040;-61
2022/12/22 06:51:49;;;;;;;16.42;8.63;;;;;;;9.11;100.00;99714.50;5095424;28;20051;-61
2022/12/22 06:54:15;;;;;;;15.23;8.88;;;;;;;9.15;100.00;99721.09;5095935;28;20058;-61
2022/12/22 06:56:45;;;;;;;15.18;8.77;;;;;;;9.16;100.00;99725.41;5096078;28;20036;-61
2022/12/22 06:59:12;;;;;;;19.95;11.60;;;;;;;9.15;100.00;99724.56;5076063;28;20094;-61
2022/12/22 07:01:38;;;;;;;20.23;10.95;;;;;;;9.13;100.00;99731.88;5057890;28;20060;-61
2022/12/22 07:04:05;;;;;;;19.17;10.23;;;;;;;9.14;100.00;99728.22;5082726;28;20070;-61
2022/12/22 07:06:32;;;;;;;21.27;10.38;;;;;;;9.16;100.00;99731.50;5089340;28;20489;-61
2022/12/22 07:08:59;;;;;;;17.02;8.15;;;;;;;9.15;100.00;99731.66;5074625;28;20049;-61
2022/12/22 07:11:25;;;;;;;17.95;8.18;;;;;;;9.07;100.00;99732.53;5091340;28;20045;-61
2022/12/22 07:13:52;;;;;;;18.48;10.73;;;;;;;8.95;100.00;99742.66;5075371;28;20051;-61
2022/12/22 07:16:19;;;;;;;18.63;10.00;;;;;;;9.00;100.00;99752.69;5075777;28;20045;-61
2022/12/22 07:18:46;;;;;;;15.10;9.15;;;;;;;9.03;100.00;99760.31;5075514;28;20064;-61
2022/12/22 07:21:13;;;;;;;15.80;8.68;;;;;;;8.99;100.00;99759.00;5091594;28;20078;-61
2022/12/22 07:23:40;;;;;;;15.68;8.25;;;;;;;9.01;100.00;99767.59;5074956;28;20045;-61
2022/12/22 07:26:08;;;;;;;18.13;8.48;;;;;;;9.00;100.00;99772.06;5075172;28;20113;-61
2022/12/22 07:28:39;;;;;;;19.20;9.23;;;;;;;9.02;100.00;99777.16;5075286;28;20048;-61
2022/12/22 07:31:08;;;;;;;20.10;8.70;;;;;;;9.06;100.00;99786.44;5075012;28;20297;-61
2022/12/22 07:33:35;;;;;;;17.08;8.70;;;;;;;9.03;100.00;99792.06;5093299;28;20052;-61
2022/12/22 07:36:09;;;;;;;17.70;9.55;;;;;;;9.01;100.00;99808.09;5095574;28;20516;-61
2022/12/22 07:38:38;;;;;;;20.27;9.00;;;;;;;8.93;100.00;99809.91;5094993;28;20046;-61
2022/12/22 07:42:43;;;;;;;18.42;9.50;;;;;;;8.94;100.00;99819.50;5094933;28;20040;-61
2022/12/22 07:43:56;;;;;;;17.27;8.82;;;;;;;8.92;100.00;99826.78;5095053;28;20040;-61
2022/12/22 07:46:24;;;;;;;18.45;9.18;;;;;;;8.94;100.00;99835.38;5095094;28;20093;-61
2022/12/22 07:51:40;;;;;;;30.30;9.88;;;;;;;9.06;100.00;99843.81;5094953;28;20071;-61
2022/12/22 07:54:09;;;;;;;23.40;10.98;;;;;;;9.07;100.00;99842.81;5094875;28;20527;-61
2022/12/22 07:56:36;;;;;;;24.63;11.35;;;;;;;9.02;100.00;99849.44;5094985;28;20043;-61
2022/12/22 07:59:03;;;;;;;23.40;11.65;;;;;;;9.09;100.00;99862.81;5094952;28;20093;-61
2022/12/22 08:01:29;;;;;;;28.27;12.63;;;;;;;9.05;100.00;99863.31;5095040;28;20105;-61
2022/12/22 08:03:57;;;;;;;30.88;14.00;;;;;;;8.90;100.00;99850.75;5094884;28;20044;-61
2022/12/22 08:06:24;;;;;;;31.90;15.38;;;;;;;8.84;100.00;99857.53;5093122;28;20047;-61
2022/12/22 08:08:50;;;;;;;33.13;14.27;;;;;;;8.79;100.00;99862.47;5093270;28;20047;-61
2022/12/22 08:11:17;;;;;;;28.70;14.18;;;;;;;8.85;100.00;99871.56;5094607;28;20066;-61
2022/12/22 08:13:45;;;;;;;31.08;14.40;;;;;;;8.80;100.00;99866.78;5095017;28;20404;-61
2022/12/22 08:16:12;;;;;;;34.42;14.57;;;;;;;8.83;100.00;99876.22;5078877;28;20043;-61
2022/12/22 08:18:40;;;;;;;28.00;14.77;;;;;;;8.84;100.00;99869.91;5078816;28;20039;-61
2022/12/22 08:21:07;;;;;;;31.17;14.57;;;;;;;8.79;100.00;99875.72;5103404;28;20555;-61
2022/12/22 08:23:35;;;;;;;28.88;13.75;;;;;;;8.89;100.00;99885.31;5080906;28;20094;-61
2022/12/22 08:26:07;;;;;;;33.33;15.82;;;;;;;8.85;100.00;99903.31;5099105;28;20058;-61
2022/12/22 08:28:39;;;;;;;30.27;14.93;;;;;;;8.84;100.00;99915.72;5085915;28;20493;-61
2022/12/22 08:31:08;;;;;;;32.72;15.23;;;;;;;8.91;100.00;99913.22;5092912;28;20119;-61
2022/12/22 08:33:36;;;;;;;33.67;15.10;;;;;;;8.87;100.00;99927.78;5082003;28;20058;-60
2022/12/22 08:36:03;;;;;;;37.00;15.98;;;;;;;8.94;100.00;99936.72;5101900;28;20051;-63
2022/12/22 08:38:33;;;;;;;37.17;16.67;;;;;;;8.90;100.00;99943.34;5077648;28;20431;-57
2022/12/22 08:41:00;;;;;;;59.33;28.27;;;;;;;8.98;100.00;99945.97;5096352;28;20047;-61
2022/12/22 08:43:30;;;;;;;35.65;17.00;;;;;;;8.84;100.00;99955.41;5057295;28;20131;-62
2022/12/22 08:45:56;;;;;;;36.80;16.05;;;;;;;8.83;100.00;99953.72;5092308;28;20052;-61
2022/12/22 08:48:23;;;;;;;39.03;16.75;;;;;;;8.83;100.00;99958.19;5072027;28;20048;-61
2022/12/22 08:50:50;;;;;;;40.03;17.25;;;;;;;8.81;100.00;99961.00;5094540;28;20119;-62
2022/12/22 08:53:16;;;;;;;40.25;17.60;;;;;;;8.77;100.00;99958.84;5046789;28;20036;-61
2022/12/22 08:55:55;;;;;;;46.58;18.63;;;;;;;8.76;100.00;99967.75;5094635;28;20424;-61
2022/12/22 08:58:22;;;;;;;336.63;160.85;;;;;;;8.80;100.00;99975.22;5071150;28;20047;-59
2022/12/22 09:00:48;;;;;;;63.72;26.85;;;;;;;8.81;100.00;99986.63;5088296;28;20133;-61
2022/12/22 09:03:15;;;;;;;48.95;19.77;;;;;;;8.86;100.00;99983.47;5068371;28;20123;-61
2022/12/22 09:05:42;;;;;;;55.03;20.88;;;;;;;8.96;100.00;99989.47;5077681;28;20047;-61
2022/12/22 09:08:09;;;;;;;48.15;20.20;;;;;;;8.98;100.00;99998.06;5048639;28;20476;-62
2022/12/22 09:10:35;;;;;;;43.67;19.30;;;;;;;9.03;100.00;99993.13;5066402;28;20036;-62
2022/12/22 09:13:02;;;;;;;45.10;18.65;;;;;;;9.07;100.00;99993.63;5073470;28;20708;-62
2022/12/22 09:15:29;;;;;;;42.80;19.23;;;;;;;9.06;100.00;100016.63;5089330;28;20123;-62
2022/12/22 09:17:55;;;;;;;46.78;18.98;;;;;;;8.93;100.00;100018.88;5059579;28;20093;-62
2022/12/22 09:20:22;;;;;;;39.95;18.38;;;;;;;8.94;100.00;100024.00;5083169;28;20048;-62
2022/12/22 09:22:49;;;;;;;40.42;18.15;;;;;;;8.98;100.00;100032.47;5071163;28;20564;-62
2022/12/22 09:25:17;;;;;;;40.63;19.35;;;;;;;9.00;100.00;100035.75;5062225;28;20047;-62
2022/12/22 09:27:44;;;;;;;43.42;17.55;;;;;;;8.96;100.00;100042.38;5076322;28;20803;-62
2022/12/22 09:30:10;;;;;;;38.67;17.10;;;;;;;8.93;100.00;100037.41;5070190;28;20070;-61
2022/12/22 09:32:39;;;;;;;37.92;16.70;;;;;;;8.90;100.00;100035.09;5085444;28;20052;-61
2022/12/22 09:35:06;;;;;;;39.25;17.52;;;;;;;8.94;100.00;100034.59;5066519;28;20132;-61
2022/12/22 09:37:32;;;;;;;42.75;18.13;;;;;;;9.11;100.00;100050.50;5073043;28;20039;-60
2022/12/22 09:39:59;;;;;;;38.50;17.13;;;;;;;9.15;100.00;100044.75;5080403;28;20036;-60
2022/12/22 09:42:28;;;;;;;36.47;16.63;;;;;;;9.18;100.00;100060.28;5080532;28;20036;-60
2022/12/22 09:44:55;;;;;;;39.00;17.55;;;;;;;9.15;100.00;100063.28;5083867;28;20056;-61
2022/12/22 09:47:34;;;;;;;38.10;17.00;;;;;;;9.25;100.00;100080.84;5083001;28;20067;-61
2022/12/22 09:50:03;;;;;;;37.00;16.00;;;;;;;9.25;100.00;100086.94;5051740;28;20048;-61
2022/12/22 09:55:27;;;;;;;35.70;16.27;;;;;;;9.11;100.00;100098.16;5064165;27;20406;-60
2022/12/22 09:57:54;;;;;;;35.30;16.05;;;;;;;9.14;100.00;100106.59;5038747;28;20049;-60
2022/12/22 10:00:25;;;;;;;36.15;16.77;;;;;;;9.17;100.00;100116.88;5056633;28;20466;-60
2022/12/22 10:03:26;;;;;;;39.08;16.52;;;;;;;9.16;100.00;100111.72;5044184;28;20823;-60
2022/12/22 10:06:04;;;;;;;40.97;17.15;;;;;;;9.16;100.00;100117.84;5045696;28;20045;-61
2022/12/22 10:08:34;;;;;;;44.25;19.42;;;;;;;9.23;100.00;100120.69;5047144;28;20072;-61
2022/12/22 10:11:00;;;;;;;37.70;17.10;;;;;;;9.26;100.00;100127.47;5061241;28;20124;-61
2022/12/22 10:13:28;;;;;;;39.25;18.17;;;;;;;9.36;100.00;100138.75;5043772;28;20048;-61
2022/12/22 10:15:55;;;;;;;42.10;18.35;;;;;;;9.26;100.00;100136.25;5049950;28;20401;-63
2022/12/22 10:18:25;;;;;;;35.17;17.45;;;;;;;9.35;100.00;100130.00;5016843;28;20049;-61
2022/12/22 10:23:47;;;;;;;55.92;23.52;;;;;;;9.21;100.00;100138.53;5150665;27;20119;-61
2022/12/22 10:26:22;;;;;;;59.75;26.98;;;;;;;9.22;100.00;100141.03;5123041;27;20043;-61
2022/12/22 10:29:02;;;;;;;53.85;25.10;;;;;;;9.28;100.00;100142.22;5106250;27;20231;-61
2022/12/22 10:31:31;;;;;;;62.15;26.38;;;;;;;9.39;100.00;100144.56;5124763;27;20027;-61
2022/12/22 10:34:16;;;;;;;57.08;24.90;;;;;;;9.31;100.00;100141.88;5120066;27;20733;-61
2022/12/22 10:36:48;;;;;;;56.15;24.02;;;;;;;9.26;100.00;100152.13;5135559;27;20044;-60
2022/12/22 10:39:23;;;;;;;;;;;;;;;9.37;100.00;100146.53;5131757;27;20054;-60
2022/12/22 10:41:54;;;;;;;58.00;26.10;;;;;;;9.34;100.00;100141.56;5109957;28;19919;-61
2022/12/22 10:44:25;;;;;;;65.45;28.20;;;;;;;9.32;100.00;100155.97;5141841;27;20125;-61
2022/12/22 10:46:54;;;;;;;;;;;;;;;9.45;100.00;100160.78;5138126;27;20592;-61
2022/12/22 10:49:28;;;;;;;76.35;29.42;;;;;;;9.43;100.00;100154.84;5128987;27;19920;-60
2022/12/22 10:54:46;;;;;;;72.05;28.95;;;;;;;9.49;100.00;100172.72;5105569;27;20726;-61
2022/12/22 10:59:52;;;;;;;69.60;27.30;;;;;;;10.68;100.00;100169.69;5102045;27;20366;-60
2022/12/22 11:05:04;;;;;;;56.47;25.08;;;;;;;10.44;100.00;100190.91;5109093;27;20881;-60
2022/12/22 11:07:34;;;;;;;47.00;21.73;;;;;;;11.21;98.35;100199.25;5090904;28;20117;-60
2022/12/22 11:10:01;;;;;;;43.35;21.02;;;;;;;12.08;91.63;100195.66;5077531;28;20044;-60
2022/12/22 11:15:36;;;;;;;39.88;19.35;;;;;;;14.38;81.95;100203.66;5116717;27;20552;-61
2022/12/22 11:18:22;;;;;;;44.67;20.02;;;;;;;13.03;83.75;100213.75;5106322;28;20050;-61
2022/12/22 11:21:29;;;;;;;44.28;20.63;;;;;;;13.17;84.43;100227.25;5100099;28;20441;-61
2022/12/22 11:24:27;;;;;;;38.05;19.23;;;;;;;12.54;85.58;100213.44;5087565;28;20036;-61
2022/12/22 11:27:15;;;;;;;41.17;18.88;;;;;;;13.68;82.59;100223.84;5085468;28;20044;-60
2022/12/22 11:30:09;;;;;;;31.23;17.25;;;;;;;13.77;80.15;100233.38;5090873;28;20043;-61
2022/12/22 11:35:43;;;;;;;35.15;17.17;;;;;;;13.30;78.76;100238.13;5095825;27;20392;-61
2022/12/22 11:38:27;;;;;;;29.73;15.50;;;;;;;12.59;80.91;100238.47;5084498;28;20094;-60
2022/12/22 11:41:34;;;;;;;31.17;15.43;;;;;;;12.34;82.30;100226.38;5097173;28;20477;-61
2022/12/22 11:44:37;;;;;;;27.08;14.45;;;;;;;12.52;79.99;100232.22;5071528;28;20123;-61
2022/12/22 11:47:28;;;;;;;27.95;14.60;;;;;;;11.98;83.21;100230.44;5054041;28;20029;-61
2022/12/22 11:50:06;;;;;;;33.38;16.45;;;;;;;11.99;83.73;100233.91;5079777;28;20562;-61
2022/12/22 11:53:06;;;;;;;28.98;15.57;;;;;;;11.48;86.51;100240.47;5077104;28;20124;-60
2022/12/22 11:55:39;;;;;;;34.83;16.73;;;;;;;11.30;89.25;100253.16;5068642;28;20063;-61
2022/12/22 11:58:30;;;;;;;33.22;15.93;;;;;;;11.37;89.52;100253.28;5076864;28;20071;-61
2022/12/22 12:01:13;;;;;;;31.90;14.80;;;;;;;11.14;88.23;100249.53;5105481;28;20043;-61
2022/12/22 12:04:01;;;;;;;31.63;14.88;;;;;;;11.16;87.82;100240.56;5110315;28;20097;-61
2022/12/22 12:06:41;;;;;;;30.75;15.85;;;;;;;11.03;87.79;100247.22;5092105;28;20050;-61
2022/12/22 12:09:29;;;;;;;30.20;14.90;;;;;;;10.82;87.63;100252.22;5091411;28;20051;-61
2022/12/22 12:12:07;;;;;;;34.20;17.42;;;;;;;10.68;88.05;100246.63;5068486;28;20520;-61
2022/12/22 12:15:03;;;;;;;40.10;19.52;;;;;;;10.83;87.58;100256.56;5081488;28;20064;-60
2022/12/22 12:17:58;;;;;;;33.05;17.63;;;;;;;10.72;88.72;100252.41;5074496;28;20044;-60
2022/12/22 12:20:53;;;;;;;36.45;17.30;;;;;;;10.67;89.02;100270.66;5059668;28;20044;-61
2022/12/22 12:23:40;;;;;;;32.20;17.88;;;;;;;10.45;90.51;100261.53;5076982;28;20040;-61
2022/12/22 12:26:29;;;;;;;35.47;17.08;;;;;;;10.52;87.99;100257.22;5074155;28;20044;-61
2022/12/22 12:29:19;;;;;;;32.40;16.02;;;;;;;10.27;89.84;100273.06;5049418;28;20044;-61
2022/12/22 12:32:02;;;;;;;36.42;17.40;;;;;;;10.40;91.83;100269.16;5070437;28;20513;-61
2022/12/22 12:34:36;;;;;;;34.15;16.67;;;;;;;10.29;88.32;100260.47;5085968;28;20506;-60
2022/12/22 12:37:32;;;;;;;30.38;15.02;;;;;;;10.66;87.92;100261.88;5060425;28;20040;-61
2022/12/22 12:40:28;;;;;;;30.55;14.82;;;;;;;10.72;86.64;100271.00;5085851;28;20093;-61
2022/12/22 12:42:56;;;;;;;31.42;14.65;;;;;;;10.68;87.78;100270.50;5094075;28;20032;-61
2022/12/22 12:45:37;;;;;;;30.65;14.55;;;;;;;10.62;88.07;100265.00;5084898;28;20040;-61
2022/12/22 12:50:59;;;;;;;28.00;11.95;;;;;;;10.35;87.55;100265.19;5087309;27;1500406;-61
2022/12/22 12:53:27;;;;;;;27.10;12.73;;;;;;;10.22;87.41;100266.59;5069476;28;20113;-61
2022/12/22 12:56:00;;;;;;;28.95;12.30;;;;;;;10.23;86.83;100260.31;5094670;28;20512;-61
2022/12/22 13:04:07;;;;;;;35.42;12.43;;;;;;;10.56;86.89;100250.59;5083907;27;20397;-61
2022/12/22 13:06:52;;;;;;;29.73;12.32;;;;;;;10.33;86.22;100248.59;5129961;28;20047;-61
2022/12/22 13:09:22;;;;;;;26.30;11.35;;;;;;;10.32;87.01;100243.47;5098157;28;20100;-61
2022/12/22 13:12:37;;;;;;;33.50;11.75;;;;;;;10.15;87.47;100246.06;5090871;28;20583;-60
2022/12/22 13:15:28;;;;;;;24.23;11.15;;;;;;;9.92;88.33;100256.44;5091401;28;20147;-60
2022/12/22 13:17:55;;;;;;;23.30;11.40;;;;;;;9.97;88.71;100258.63;5100273;28;20472;-61
2022/12/22 13:20:27;;;;;;;27.02;11.55;;;;;;;9.80;90.50;100263.03;5094215;28;20036;-60
2022/12/22 13:22:56;;;;;;;25.75;11.63;;;;;;;9.75;90.36;100268.81;5072365;28;20040;-61
2022/12/22 13:25:26;;;;;;;27.48;11.98;;;;;;;9.59;90.06;100266.09;5101505;28;20047;-62
2022/12/22 13:27:56;;;;;;;28.08;12.15;;;;;;;9.52;90.80;100257.13;5082543;28;20127;-61
2022/12/22 13:30:23;;;;;;;35.92;12.48;;;;;;;9.72;90.63;100261.19;5090859;27;20428;-61
2022/12/22 13:32:51;;;;;;;27.25;12.77;;;;;;;9.67;91.50;100254.69;5095011;27;20047;-62
2022/12/22 13:35:22;;;;;;;27.02;13.30;;;;;;;9.75;91.89;100258.22;5101731;27;20435;-61
2022/12/22 13:37:58;;;;;;;28.02;12.25;;;;;;;9.66;90.74;100255.69;5063549;28;20048;-61
2022/12/22 13:40:30;;;;;;;23.95;12.65;;;;;;;9.76;91.62;100267.81;5105156;28;20036;-62
2022/12/22 13:43:10;;;;;;;27.17;12.93;;;;;;;9.59;92.79;100271.41;5089806;28;20051;-61
2022/12/22 13:45:41;;;;;;;28.05;12.68;;;;;;;9.58;92.41;100265.25;5105510;28;20078;-61
2022/12/22 13:48:15;;;;;;;28.50;12.75;;;;;;;9.73;92.96;100278.75;5095506;28;20122;-62
2022/12/22 13:50:47;;;;;;;28.52;13.18;;;;;;;9.72;92.56;100284.19;5093624;28;20039;-61
2022/12/22 13:53:21;;;;;;;30.48;12.13;;;;;;;9.74;92.54;100271.63;5088287;27;20051;-61
2022/12/22 13:56:13;;;;;;;30.17;12.88;;;;;;;9.76;93.82;100277.56;5102068;28;20520;-61
2022/12/22 13:58:45;;;;;;;26.02;12.68;;;;;;;9.75;93.30;100281.22;5081514;28;20039;-61
2022/12/22 14:01:17;;;;;;;24.58;12.05;;;;;;;9.84;92.43;100282.94;5103361;28;20043;-62
2022/12/22 14:03:48;;;;;;;29.08;12.77;;;;;;;9.92;93.05;100279.47;5062757;28;20071;-62
2022/12/22 14:06:28;;;;;;;27.50;12.23;;;;;;;9.86;92.57;100274.78;5104509;28;20039;-62
2022/12/22 14:09:16;;;;;;;27.08;12.70;;;;;;;9.77;93.20;100271.31;5085273;28;20437;-62
2022/12/22 14:11:49;;;;;;;27.70;12.00;;;;;;;9.59;93.64;100271.41;5084930;28;21086;-62
2022/12/22 14:14:22;;;;;;;27.77;12.52;;;;;;;9.69;94.21;100269.44;5079463;28;20508;-62
2022/12/22 14:16:51;;;;;;;25.20;12.20;;;;;;;9.64;93.86;100266.47;5091189;28;20127;-61
2022/12/22 14:19:19;;;;;;;28.23;12.45;;;;;;;9.59;95.08;100269.56;5074221;28;20044;-61
2022/12/22 14:21:52;;;;;;;29.65;12.23;;;;;;;9.66;94.09;100275.06;5087913;28;20169;-61
2022/12/22 14:24:23;;;;;;;36.05;17.60;;;;;;;9.60;94.89;100273.91;5063949;28;21614;-61
2022/12/22 14:26:52;;;;;;;28.73;12.88;;;;;;;9.55;94.94;100273.53;5069834;28;20127;-61
2022/12/22 14:29:25;;;;;;;25.67;12.27;;;;;;;9.48;95.49;100272.50;5077633;28;20040;-63
2022/12/22 14:31:57;;;;;;;28.90;12.15;;;;;;;9.51;94.45;100269.53;5059210;28;20154;-63
2022/12/22 14:34:28;;;;;;;24.98;11.38;;;;;;;9.44;95.49;100268.53;5069946;28;20040;-61
2022/12/22 14:36:57;;;;;;;25.05;11.05;;;;;;;9.29;96.03;100267.44;5109349;27;20052;-62
2022/12/22 14:39:30;;;;;;;25.58;11.90;;;;;;;9.21;97.21;100266.41;5064535;28;20052;-61
2022/12/22 14:42:12;;;;;;;27.45;10.85;;;;;;;9.22;96.48;100272.50;5098972;28;20439;-62
2022/12/22 14:44:44;;;;;;;21.05;10.07;;;;;;;9.22;96.34;100276.00;5070500;28;25079;-60
2022/12/22 14:50:23;;;;;;;18.33;8.10;;;;;;;9.20;93.96;100263.91;5075922;27;20886;-61
2022/12/22 14:52:54;;;;;;;16.98;7.70;;;;;;;9.20;94.64;100256.81;5090560;28;20049;-61
2022/12/22 14:55:27;;;;;;;17.13;7.90;;;;;;;9.17;94.49;100251.84;5059774;28;20055;-61
2022/12/22 14:58:13;;;;;;;19.13;8.43;;;;;;;9.29;93.80;100238.31;5090233;28;20044;-61
2022/12/22 15:00:43;;;;;;;15.60;7.80;;;;;;;9.25;93.93;100236.97;5067636;28;20075;-61
2022/12/22 15:03:32;;;;;;;14.20;7.15;;;;;;;9.17;92.05;100238.59;5083428;28;20047;-62
2022/12/22 15:06:21;;;;;;;14.63;7.05;;;;;;;9.19;92.86;100227.84;5051171;28;20052;-61
2022/12/22 15:08:48;;;;;;;14.02;6.85;;;;;;;9.22;92.15;100224.88;5075782;28;20516;-61
2022/12/22 15:11:17;;;;;;;13.45;6.68;;;;;;;9.18;92.13;100220.91;5079551;28;20746;-62
2022/12/22 15:13:46;;;;;;;15.93;7.15;;;;;;;9.19;93.38;100225.22;5051603;28;20094;-62
2022/12/22 15:16:16;;;;;;;15.80;7.50;;;;;;;9.21;94.67;100220.59;5053654;28;20117;-62
2022/12/22 15:18:43;;;;;;;18.75;7.60;;;;;;;9.21;93.96;100220.59;5064285;28;20036;-61
2022/12/22 15:21:12;;;;;;;13.85;7.03;;;;;;;9.27;94.99;100219.13;5067908;28;20048;-62
2022/12/22 15:23:39;;;;;;;14.65;7.45;;;;;;;9.29;95.20;100209.19;5082310;28;20163;-62
2022/12/22 15:26:06;;;;;;;18.00;7.68;;;;;;;9.28;95.45;100210.19;5042194;28;20059;-62
2022/12/22 15:28:33;;;;;;;14.00;7.15;;;;;;;9.30;95.67;100203.75;5101142;28;20519;-62
2022/12/22 15:31:02;;;;;;;13.13;7.03;;;;;;;9.30;95.72;100198.47;5069680;28;20057;-61
2022/12/22 15:33:29;;;;;;;14.90;6.80;;;;;;;9.30;95.54;100195.81;5089273;28;20056;-62
2022/12/22 15:35:56;;;;;;;19.00;9.02;;;;;;;9.30;95.71;100192.34;5084601;28;20044;-61
2022/12/22 15:38:24;;;;;;;18.15;8.00;;;;;;;9.25;94.58;100194.63;5087485;28;20058;-62
2022/12/22 15:40:52;;;;;;;21.17;9.52;;;;;;;9.31;94.80;100199.28;5048693;28;20052;-61
2022/12/22 15:43:20;;;;;;;15.45;8.43;;;;;;;9.45;92.53;100192.56;5100462;28;20044;-61
2022/12/22 15:46:12;;;;;;;15.95;8.90;;;;;;;9.31;94.78;100189.50;5061428;28;20449;-61
2022/12/22 15:48:40;;;;;;;16.70;8.95;;;;;;;9.31;95.36;100194.00;5104362;28;20116;-61